createdAt,value
2022-10-07T00:01:25.210Z,46.99
2022-10-07T00:03:58.312Z,46.82
2022-10-07T00:06:29.633Z,46.74
2022-10-07T00:09:01.633Z,46.87
2022-10-07T00:11:32.050Z,46.88
2022-10-07T00:14:10.150Z,46.59
2022-10-07T00:16:40.837Z,46.81
2022-10-07T00:19:12.150Z,46.93
2022-10-07T00:21:45.482Z,46.94
2022-10-07T00:24:16.181Z,47.04
2022-10-07T00:26:43.931Z,46.88
2022-10-07T00:29:17.577Z,46.82
2022-10-07T00:31:47.360Z,46.78
2022-10-07T00:34:17.342Z,46.98
2022-10-07T00:36:51.169Z,46.77
2022-10-07T00:39:21.006Z,46.59
2022-10-07T00:41:51.568Z,47.23
2022-10-07T00:44:38.240Z,46.66
2022-10-07T00:47:16.484Z,46.79
2022-10-07T00:50:04.157Z,47.19
2022-10-07T00:52:46.619Z,47.06
2022-10-07T00:55:20.662Z,47.23
2022-10-07T00:57:53.757Z,47.14
2022-10-07T01:00:24.232Z,46.84
2022-10-07T01:02:55.301Z,46.85
2022-10-07T01:05:30.755Z,47.00
2022-10-07T01:08:02.085Z,47.07
2022-10-07T01:11:03.016Z,46.61
2022-10-07T01:13:53.861Z,46.59
2022-10-07T01:16:35.884Z,46.19
2022-10-07T01:19:42.142Z,46.30
2022-10-07T01:22:25.542Z,45.82
2022-10-07T01:25:04.270Z,45.32
2022-10-07T01:27:36.348Z,45.58
2022-10-07T01:30:13.149Z,45.52
2022-10-07T01:32:49.739Z,45.75
2022-10-07T01:35:32.805Z,45.28
2022-10-07T01:38:08.576Z,45.45
2022-10-07T01:40:49.647Z,45.67
2022-10-07T01:43:26.859Z,45.73
2022-10-07T01:45:58.119Z,45.55
2022-10-07T01:48:36.955Z,45.35
2022-10-07T01:51:10.597Z,45.03
2022-10-07T01:53:56.500Z,45.51
2022-10-07T01:56:42.388Z,45.09
2022-10-07T01:59:48.882Z,45.32
2022-10-07T02:02:34.853Z,44.78
2022-10-07T02:05:29.865Z,45.02
2022-10-07T02:08:31.615Z,44.67
2022-10-07T02:11:14.507Z,44.79
2022-10-07T02:14:02.072Z,44.60
2022-10-07T02:16:53.344Z,45.25
2022-10-07T02:19:31.520Z,45.16
2022-10-07T02:22:02.812Z,45.41
2022-10-07T02:24:40.380Z,45.85
2022-10-07T02:27:17.933Z,45.90
2022-10-07T02:29:54.394Z,45.96
2022-10-07T02:32:27.027Z,45.93
2022-10-07T02:35:10.242Z,46.04
2022-10-07T02:37:48.443Z,46.01
2022-10-07T02:40:17.433Z,45.92
2022-10-07T02:43:03.563Z,46.32
2022-10-07T02:45:43.289Z,46.24
2022-10-07T02:48:31.219Z,46.29
2022-10-07T02:51:07.356Z,46.26
2022-10-07T02:53:40.256Z,46.51
2022-10-07T02:56:10.532Z,46.19
2022-10-07T02:58:45.761Z,46.24
2022-10-07T03:01:26.254Z,46.17
2022-10-07T03:03:57.205Z,46.39
2022-10-07T03:06:30.655Z,46.48
2022-10-07T03:09:05.387Z,46.39
2022-10-07T03:11:32.804Z,46.50
2022-10-07T03:14:00.387Z,46.31
2022-10-07T03:16:39.054Z,46.46
2022-10-07T03:19:10.936Z,46.38
2022-10-07T03:21:54.812Z,46.33
2022-10-07T03:24:26.608Z,46.74
2022-10-07T03:26:57.086Z,46.51
2022-10-07T03:29:33.350Z,46.36
2022-10-07T03:32:04.165Z,46.53
2022-10-07T03:34:37.589Z,46.63
2022-10-07T03:37:07.689Z,46.63
2022-10-07T03:39:42.627Z,46.64
2022-10-07T03:42:11.004Z,46.48
2022-10-07T03:44:41.642Z,46.57
2022-10-07T03:47:12.551Z,46.82
2022-10-07T03:49:43.468Z,46.53
2022-10-07T03:52:14.601Z,46.40
2022-10-07T03:54:48.190Z,46.65
2022-10-07T03:57:36.974Z,46.65
2022-10-07T04:00:07.058Z,46.57
2022-10-07T04:02:45.589Z,46.43
2022-10-07T04:05:15.910Z,46.79
2022-10-07T04:07:48.519Z,46.68
2022-10-07T04:10:21.557Z,46.72
2022-10-07T04:12:54.272Z,46.52
2022-10-07T04:15:22.489Z,46.38
2022-10-07T04:18:00.308Z,46.54
2022-10-07T04:20:35.213Z,46.21
2022-10-07T04:23:08.586Z,46.24
2022-10-07T04:25:46.819Z,46.03
2022-10-07T04:28:26.365Z,46.47
2022-10-07T04:31:11.671Z,46.60
2022-10-07T04:33:47.487Z,46.60
2022-10-07T04:36:28.616Z,46.39
2022-10-07T04:39:11.987Z,46.19
2022-10-07T04:41:48.169Z,46.40
2022-10-07T04:44:20.786Z,46.38
2022-10-07T04:46:57.530Z,46.11
2022-10-07T04:49:27.903Z,46.27
2022-10-07T04:52:01.001Z,46.11
2022-10-07T04:54:39.475Z,46.31
2022-10-07T04:57:16.309Z,46.17
2022-10-07T04:59:48.281Z,46.29
2022-10-07T05:02:28.494Z,46.41
2022-10-07T05:04:56.222Z,46.17
2022-10-07T05:07:26.806Z,46.61
2022-10-07T05:09:57.591Z,46.43
2022-10-07T05:12:28.776Z,46.65
2022-10-07T05:15:04.797Z,46.43
2022-10-07T05:17:35.843Z,46.37
2022-10-07T05:20:09.516Z,46.58
2022-10-07T05:22:39.709Z,46.46
2022-10-07T05:25:20.166Z,46.62
2022-10-07T05:27:55.136Z,46.75
2022-10-07T05:30:27.708Z,46.79
2022-10-07T05:32:58.699Z,46.87
2022-10-07T05:35:34.096Z,46.88
2022-10-07T05:38:02.502Z,46.74
2022-10-07T05:40:38.057Z,46.36
2022-10-07T05:43:05.884Z,46.60
2022-10-07T05:45:39.639Z,46.35
2022-10-07T05:48:07.555Z,46.52
2022-10-07T05:50:34.950Z,46.90
2022-10-07T05:53:10.166Z,46.95
2022-10-07T05:55:42.540Z,46.45
2022-10-07T05:58:14.076Z,46.64
2022-10-07T06:00:58.050Z,46.46
2022-10-07T06:03:28.548Z,46.83
2022-10-07T06:05:59.598Z,45.78
2022-10-07T06:08:30.842Z,45.55
2022-10-07T06:11:22.068Z,44.25
2022-10-07T06:13:55.567Z,41.06
2022-10-07T06:16:30.091Z,41.37
2022-10-07T06:19:04.097Z,40.48
2022-10-07T06:21:37.996Z,40.01
2022-10-07T06:24:10.844Z,39.46
2022-10-07T06:26:43.422Z,40.05
2022-10-07T06:29:17.598Z,40.68
2022-10-07T06:31:51.630Z,40.66
2022-10-07T06:34:23.104Z,39.81
2022-10-07T06:36:54.956Z,38.91
2022-10-07T06:39:23.574Z,39.55
2022-10-07T06:41:57.296Z,39.09
2022-10-07T06:44:59.629Z,37.98
2022-10-07T06:47:30.978Z,37.17
2022-10-07T06:50:04.629Z,36.84
2022-10-07T06:52:39.945Z,36.84
2022-10-07T06:55:10.585Z,37.74
2022-10-07T06:57:45.773Z,37.48
2022-10-07T07:00:22.832Z,38.16
2022-10-07T07:02:54.779Z,37.64
2022-10-07T07:05:35.784Z,36.45
2022-10-07T07:08:04.088Z,36.59
2022-10-07T07:10:42.234Z,35.68
2022-10-07T07:13:15.777Z,36.46
2022-10-07T07:16:00.169Z,36.84
2022-10-07T07:18:37.650Z,35.80
2022-10-07T07:21:09.020Z,36.12
2022-10-07T07:23:39.767Z,34.39
2022-10-07T07:26:07.611Z,36.13
2022-10-07T07:28:38.118Z,36.12
2022-10-07T07:31:14.834Z,36.81
2022-10-07T07:33:45.829Z,36.85
2022-10-07T07:36:20.088Z,36.86
2022-10-07T07:38:57.532Z,37.70
2022-10-07T07:41:37.526Z,38.22
2022-10-07T07:44:09.485Z,38.46
2022-10-07T07:46:43.827Z,38.10
2022-10-07T07:49:16.985Z,38.36
2022-10-07T07:51:54.877Z,38.46
2022-10-07T07:54:32.545Z,38.69
2022-10-07T07:57:00.369Z,38.54
2022-10-07T07:59:34.936Z,38.73
2022-10-07T08:02:05.951Z,38.50
2022-10-07T08:04:40.450Z,38.81
2022-10-07T08:07:13.451Z,39.27
2022-10-07T08:09:47.560Z,39.71
2022-10-07T08:12:23.818Z,39.57
2022-10-07T08:14:59.028Z,39.93
2022-10-07T08:17:35.117Z,40.30
2022-10-07T08:20:06.338Z,40.71
2022-10-07T08:22:36.487Z,41.00
2022-10-07T08:25:07.068Z,41.73
2022-10-07T08:27:39.474Z,41.66
2022-10-07T08:30:08.950Z,41.98
2022-10-07T08:32:43.243Z,42.24
2022-10-07T08:35:12.318Z,42.25
2022-10-07T08:37:43.087Z,42.34
2022-10-07T08:40:17.166Z,42.33
2022-10-07T08:42:49.129Z,42.57
2022-10-07T08:45:29.676Z,42.25
2022-10-07T08:48:03.810Z,43.15
2022-10-07T08:51:09.347Z,42.39
2022-10-07T08:53:38.190Z,43.09
2022-10-07T08:56:27.161Z,43.60
2022-10-07T08:59:03.585Z,43.30
2022-10-07T09:01:46.992Z,43.33
2022-10-07T09:04:33.862Z,43.54
2022-10-07T09:07:24.017Z,43.63
2022-10-07T09:10:07.480Z,43.71
2022-10-07T09:12:41.891Z,43.40
2022-10-07T09:15:28.767Z,43.39
2022-10-07T09:18:04.311Z,43.93
2022-10-07T09:20:45.829Z,43.33
2022-10-07T09:23:18.835Z,43.47
2022-10-07T09:25:52.609Z,43.57
2022-10-07T09:28:29.170Z,43.50
2022-10-07T09:31:10.997Z,43.27
2022-10-07T09:33:47.488Z,43.90
2022-10-07T09:36:25.649Z,43.36
2022-10-07T09:38:54.053Z,43.19
2022-10-07T09:41:38.653Z,43.06
2022-10-07T09:44:25.772Z,43.37
2022-10-07T09:47:18.901Z,43.64
2022-10-07T09:49:54.338Z,43.07
2022-10-07T09:52:31.889Z,42.72
2022-10-07T09:55:49.703Z,42.65
2022-10-07T09:58:27.435Z,42.64
2022-10-07T10:01:00.996Z,41.66
2022-10-07T10:03:35.125Z,41.38
2022-10-07T10:06:12.241Z,41.52
2022-10-07T10:08:45.026Z,41.34
2022-10-07T10:11:21.745Z,40.57
2022-10-07T10:13:51.424Z,40.02
2022-10-07T10:16:26.021Z,39.55
2022-10-07T10:19:06.639Z,39.44
2022-10-07T10:21:42.743Z,40.64
2022-10-07T10:24:16.848Z,39.25
2022-10-07T10:27:05.617Z,40.23
2022-10-07T10:30:05.191Z,39.86
2022-10-07T10:33:01.359Z,39.90
2022-10-07T10:35:32.208Z,39.28
2022-10-07T10:38:21.067Z,39.14
2022-10-07T10:41:30.210Z,39.07
2022-10-07T10:44:16.452Z,39.60
2022-10-07T10:46:55.920Z,39.43
2022-10-07T10:49:41.658Z,39.09
2022-10-07T10:52:27.306Z,39.30
2022-10-07T10:55:37.162Z,39.17
2022-10-07T10:58:48.615Z,39.40
2022-10-07T11:01:40.934Z,39.28
2022-10-07T11:04:39.026Z,39.10
2022-10-07T11:07:30.861Z,40.02
2022-10-07T11:10:07.200Z,39.35
2022-10-07T11:12:41.656Z,40.40
2022-10-07T11:15:46.668Z,39.36
2022-10-07T11:18:41.293Z,38.87
2022-10-07T11:21:40.513Z,39.10
2022-10-07T11:24:33.094Z,39.64
2022-10-07T11:27:15.153Z,39.56
2022-10-07T11:29:54.370Z,40.38
2022-10-07T11:32:38.282Z,40.26
2022-10-07T11:35:30.083Z,40.16
2022-10-07T11:38:11.051Z,40.01
2022-10-07T11:41:10.420Z,40.30
2022-10-07T11:43:49.333Z,40.55
2022-10-07T11:46:31.225Z,39.94
2022-10-07T11:49:16.213Z,40.80
2022-10-07T11:52:05.588Z,41.03
2022-10-07T11:54:43.914Z,40.83
2022-10-07T11:57:24.834Z,40.98
2022-10-07T12:00:26.717Z,40.85
2022-10-07T12:02:56.109Z,41.36
2022-10-07T12:05:41.638Z,41.89
2022-10-07T12:08:29.370Z,41.88
2022-10-07T12:11:15.151Z,41.81
2022-10-07T12:13:53.829Z,41.46
2022-10-07T12:16:24.992Z,41.29
2022-10-07T12:19:15.080Z,42.01
2022-10-07T12:22:03.198Z,41.80
2022-10-07T12:24:36.073Z,41.54
2022-10-07T12:27:29.373Z,42.17
2022-10-07T12:30:03.225Z,41.73
2022-10-07T12:32:53.266Z,41.42
2022-10-07T12:35:40.937Z,41.40
2022-10-07T12:38:23.584Z,41.59
2022-10-07T12:41:03.791Z,41.35
2022-10-07T12:43:47.976Z,41.31
2022-10-07T12:46:20.597Z,41.94
2022-10-07T12:48:55.567Z,41.95
2022-10-07T12:51:29.203Z,41.36
2022-10-07T12:53:57.689Z,41.54
2022-10-07T12:56:29.282Z,41.20
2022-10-07T12:59:18.740Z,41.32
2022-10-07T13:01:52.826Z,41.27
2022-10-07T13:04:51.931Z,41.21
2022-10-07T13:08:00.430Z,41.30
2022-10-07T13:11:00.818Z,41.48
2022-10-07T13:14:04.084Z,40.91
2022-10-07T13:17:03.414Z,41.16
2022-10-07T13:19:49.294Z,41.31
2022-10-07T13:22:21.503Z,41.42
2022-10-07T13:24:57.163Z,41.42
2022-10-07T13:27:32.349Z,41.28
2022-10-07T13:30:10.445Z,41.07
2022-10-07T13:32:42.226Z,41.24
2022-10-07T13:35:38.794Z,41.64
2022-10-07T13:38:21.301Z,41.15
2022-10-07T13:41:15.357Z,41.69
2022-10-07T13:43:46.276Z,41.49
2022-10-07T13:46:17.556Z,41.07
2022-10-07T13:48:49.192Z,41.86
2022-10-07T13:51:25.415Z,41.50
2022-10-07T13:54:00.974Z,41.24
2022-10-07T13:56:38.973Z,41.30
2022-10-07T13:59:08.744Z,41.53
2022-10-07T14:01:40.753Z,41.38
2022-10-07T14:04:13.422Z,41.17
2022-10-07T14:06:56.263Z,41.51
2022-10-07T14:09:45.952Z,41.26
2022-10-07T14:12:31.484Z,41.51
2022-10-07T14:15:24.091Z,41.28
2022-10-07T14:18:09.073Z,40.71
2022-10-07T14:20:51.996Z,41.14
2022-10-07T14:23:34.435Z,40.38
2022-10-07T14:26:18.116Z,40.73
2022-10-07T14:28:54.200Z,40.78
2022-10-07T14:31:46.189Z,40.96
2022-10-07T14:34:39.502Z,41.07
2022-10-07T14:37:15.718Z,41.21
2022-10-07T14:39:51.561Z,41.00
2022-10-07T14:42:33.597Z,40.89
2022-10-07T14:45:17.235Z,40.64
2022-10-07T14:47:57.395Z,40.71
2022-10-07T14:50:31.215Z,40.82
2022-10-07T14:53:05.757Z,40.94
2022-10-07T14:55:41.846Z,40.62
2022-10-07T14:58:14.122Z,40.88
2022-10-07T15:00:45.338Z,40.62
2022-10-07T15:03:18.740Z,40.84
2022-10-07T15:05:48.995Z,40.85
2022-10-07T15:08:22.112Z,41.05
2022-10-07T15:10:59.399Z,40.83
2022-10-07T15:13:33.224Z,41.13
2022-10-07T15:16:04.230Z,40.84
2022-10-07T15:18:32.645Z,41.01
2022-10-07T15:21:04.988Z,41.05
2022-10-07T15:23:35.912Z,41.05
2022-10-07T15:26:06.519Z,41.50
2022-10-07T15:28:37.626Z,41.29
2022-10-07T15:31:14.696Z,41.65
2022-10-07T15:33:52.551Z,41.73
2022-10-07T15:36:23.488Z,41.39
2022-10-07T15:38:54.560Z,41.52
2022-10-07T15:41:33.373Z,41.55
2022-10-07T15:44:22.748Z,42.02
2022-10-07T15:46:55.396Z,41.59
2022-10-07T15:49:26.506Z,40.61
2022-10-07T15:51:57.025Z,40.30
2022-10-07T15:54:25.657Z,39.33
2022-10-07T15:56:56.461Z,38.73
2022-10-07T15:59:28.382Z,38.81
2022-10-07T16:01:56.185Z,38.70
2022-10-07T16:04:24.962Z,38.06
2022-10-07T16:06:56.060Z,37.82
2022-10-07T16:09:29.187Z,37.35
2022-10-07T16:11:59.304Z,36.97
2022-10-07T16:14:32.850Z,36.43
2022-10-07T16:17:04.378Z,36.82
2022-10-07T16:19:34.689Z,36.26
2022-10-07T16:22:05.794Z,36.79
2022-10-07T16:24:37.573Z,37.24
2022-10-07T16:27:06.972Z,38.09
